Main page
METAR-TAF:

METAR-TAF

Airports :

San Sebastián, Spain

San Sebastián Airport

latitude: 43-21N, longitude: 001-48W, elevation: 5 m

Current weather observation

The report was made 35 minutes ago, at 10:30 UTC
Wind 2 kt from variable directions
Temperature 19°C
Humidity 43%
Pressure 1013 hPa
Visibility 10 km or more
no clouds below 1500 m and no cumulonimbus

METAR: LESO 231030Z VRB02KT CAVOK 19/06 Q1013

Time: 12:05 (11:05 UTC)

Forecast

The report was made 6 hours and 5 minutes ago, at 05:00 UTC
Forecast valid from 23 at 06 UTC to 24 at 06 UTC
Wind 9 kt from the South/Southwest
Visibility 10 km or more
no clouds below 1500 m and no cumulonimbus
Temporary
from 23 at 06 UTC to 23 at 15 UTC
Wind 15 kt from the South/Southwest with gusts up to 30 kt

TAF: LESO 230500Z 2306/2406 20009KT CAVOK TX23/2314Z TN13/2406Z TEMPO 2306/2315 20015G30KT

Weather observations and forecasts of more than 4000 airports (METAR and TAF reports).

The available stations are represented by yellow and red dots on the map.

Hover mouse over dot to see the name of the station.

Then click to see weather observations and forecasts.

To change the map : click on the green buttons with a black cross to zoom in, on the green button with a dash to zoom out, or on the green arrows for adjacent maps.


METAR-TAF: